sensor_id;sensor_type;location;lat;lon;timestamp;pressure;altitude;pressure_sealevel;temperature;humidity
56176;BME280;63065;51.082;17.016;2023-02-12T00:01:59;101807.55;;;6.18;58.59
56176;BME280;63065;51.082;17.016;2023-02-12T00:04:24;101809.77;;;5.96;58.38
56176;BME280;63065;51.082;17.016;2023-02-12T00:06:49;101811.98;;;5.54;58.55
56176;BME280;63065;51.082;17.016;2023-02-12T00:09:15;101807.14;;;5.38;59.25
56176;BME280;63065;51.082;17.016;2023-02-12T00:11:40;101807.81;;;5.94;58.62
56176;BME280;63065;51.082;17.016;2023-02-12T00:14:06;101811.80;;;5.68;58.45
56176;BME280;63065;51.082;17.016;2023-02-12T00:16:31;101815.45;;;6.18;58.53
56176;BME280;63065;51.082;17.016;2023-02-12T00:18:57;101822.20;;;5.75;58.82
56176;BME280;63065;51.082;17.016;2023-02-12T00:21:23;101824.42;;;6.13;58.37
56176;BME280;63065;51.082;17.016;2023-02-12T00:23:48;101825.18;;;6.00;58.92
56176;BME280;63065;51.082;17.016;2023-02-12T00:26:15;101823.27;;;5.61;58.53
56176;BME280;63065;51.082;17.016;2023-02-12T00:28:38;101824.74;;;5.63;58.78
56176;BME280;63065;51.082;17.016;2023-02-12T00:31:06;101829.51;;;5.68;58.94
56176;BME280;63065;51.082;17.016;2023-02-12T00:33:30;101833.02;;;5.89;58.15
56176;BME280;63065;51.082;17.016;2023-02-12T00:35:55;101838.10;;;6.24;58.20
56176;BME280;63065;51.082;17.016;2023-02-12T00:38:20;101832.67;;;5.59;58.54
56176;BME280;63065;51.082;17.016;2023-02-12T00:40:46;101837.39;;;5.76;58.04
56176;BME280;63065;51.082;17.016;2023-02-12T00:43:11;101838.89;;;6.08;58.42
56176;BME280;63065;51.082;17.016;2023-02-12T00:45:36;101840.14;;;5.63;58.33
56176;BME280;63065;51.082;17.016;2023-02-12T00:48:02;101840.55;;;5.70;58.79
56176;BME280;63065;51.082;17.016;2023-02-12T00:50:28;101840.12;;;6.08;58.58
56176;BME280;63065;51.082;17.016;2023-02-12T00:52:53;101845.07;;;5.24;59.06
56176;BME280;63065;51.082;17.016;2023-02-12T00:55:19;101842.28;;;5.73;59.48
56176;BME280;63065;51.082;17.016;2023-02-12T00:57:44;101840.62;;;5.63;58.84
56176;BME280;63065;51.082;17.016;2023-02-12T01:00:11;101842.59;;;5.97;59.00
56176;BME280;63065;51.082;17.016;2023-02-12T01:02:35;101847.82;;;6.23;58.21
56176;BME280;63065;51.082;17.016;2023-02-12T01:05:01;101846.94;;;5.41;58.60
56176;BME280;63065;51.082;17.016;2023-02-12T01:07:27;101849.96;;;5.96;58.13
56176;BME280;63065;51.082;17.016;2023-02-12T01:09:52;101855.20;;;5.85;58.78
56176;BME280;63065;51.082;17.016;2023-02-12T01:12:18;101855.52;;;5.63;59.01
56176;BME280;63065;51.082;17.016;2023-02-12T01:14:43;101853.39;;;5.67;58.70
56176;BME280;63065;51.082;17.016;2023-02-12T01:17:08;101858.08;;;5.64;58.60
56176;BME280;63065;51.082;17.016;2023-02-12T01:19:34;101857.57;;;5.74;58.36
56176;BME280;63065;51.082;17.016;2023-02-12T01:21:59;101860.87;;;5.87;57.79
56176;BME280;63065;51.082;17.016;2023-02-12T01:24:24;101859.65;;;5.77;58.44
56176;BME280;63065;51.082;17.016;2023-02-12T01:26:50;101868.02;;;5.75;59.05
56176;BME280;63065;51.082;17.016;2023-02-12T01:29:15;101873.40;;;5.88;58.79
56176;BME280;63065;51.082;17.016;2023-02-12T01:31:41;101872.87;;;5.88;57.84
56176;BME280;63065;51.082;17.016;2023-02-12T01:34:07;101868.16;;;5.61;58.51
56176;BME280;63065;51.082;17.016;2023-02-12T01:36:32;101865.74;;;5.78;58.40
56176;BME280;63065;51.082;17.016;2023-02-12T01:38:57;101866.54;;;5.86;58.40
56176;BME280;63065;51.082;17.016;2023-02-12T01:41:25;101873.47;;;5.81;57.59
56176;BME280;63065;51.082;17.016;2023-02-12T01:46:14;101875.96;;;5.90;57.21
56176;BME280;63065;51.082;17.016;2023-02-12T01:48:41;101884.35;;;5.78;57.63
56176;BME280;63065;51.082;17.016;2023-02-12T01:51:06;101899.88;;;5.50;58.09
56176;BME280;63065;51.082;17.016;2023-02-12T01:53:33;101903.67;;;5.80;57.91
56176;BME280;63065;51.082;17.016;2023-02-12T01:55:58;101909.48;;;6.10;58.38
56176;BME280;63065;51.082;17.016;2023-02-12T01:58:20;101912.55;;;5.71;58.41
56176;BME280;63065;51.082;17.016;2023-02-12T02:00:46;101911.78;;;6.26;58.16
56176;BME280;63065;51.082;17.016;2023-02-12T02:03:11;101915.45;;;5.54;59.14
56176;BME280;63065;51.082;17.016;2023-02-12T02:05:42;101912.80;;;5.85;57.97
56176;BME280;63065;51.082;17.016;2023-02-12T02:08:02;101908.31;;;5.84;59.89
56176;BME280;63065;51.082;17.016;2023-02-12T02:10:28;101911.50;;;5.87;59.28
56176;BME280;63065;51.082;17.016;2023-02-12T02:12:52;101913.35;;;5.81;59.30
56176;BME280;63065;51.082;17.016;2023-02-12T02:15:18;101915.26;;;5.66;58.85
56176;BME280;63065;51.082;17.016;2023-02-12T02:17:50;101918.43;;;5.57;58.81
56176;BME280;63065;51.082;17.016;2023-02-12T02:22:38;101916.08;;;6.07;58.47
56176;BME280;63065;51.082;17.016;2023-02-12T02:27:35;101915.41;;;5.92;57.45
56176;BME280;63065;51.082;17.016;2023-02-12T02:32:18;101923.81;;;5.80;58.24
56176;BME280;63065;51.082;17.016;2023-02-12T02:34:49;101921.61;;;5.95;57.71
56176;BME280;63065;51.082;17.016;2023-02-12T02:37:13;101924.21;;;6.29;58.86
56176;BME280;63065;51.082;17.016;2023-02-12T02:39:36;101930.53;;;5.73;58.03
56176;BME280;63065;51.082;17.016;2023-02-12T02:42:00;101930.36;;;5.91;58.26
56176;BME280;63065;51.082;17.016;2023-02-12T02:44:27;101934.34;;;5.86;57.77
56176;BME280;63065;51.082;17.016;2023-02-12T02:46:50;101943.44;;;5.99;57.63
56176;BME280;63065;51.082;17.016;2023-02-12T02:49:18;101944.73;;;5.91;57.80
56176;BME280;63065;51.082;17.016;2023-02-12T02:51:42;101948.89;;;5.94;58.04
56176;BME280;63065;51.082;17.016;2023-02-12T02:54:08;101950.76;;;5.87;57.62
56176;BME280;63065;51.082;17.016;2023-02-12T02:56:32;101950.17;;;5.75;58.51
56176;BME280;63065;51.082;17.016;2023-02-12T02:59:00;101953.00;;;5.81;58.09
56176;BME280;63065;51.082;17.016;2023-02-12T03:01:23;101954.08;;;5.91;57.68
56176;BME280;63065;51.082;17.016;2023-02-12T03:03:49;101955.98;;;5.81;58.12
56176;BME280;63065;51.082;17.016;2023-02-12T03:06:16;101955.45;;;5.87;58.19
56176;BME280;63065;51.082;17.016;2023-02-12T03:08:40;101956.52;;;5.60;58.47
56176;BME280;63065;51.082;17.016;2023-02-12T03:11:05;101960.34;;;5.86;58.25
56176;BME280;63065;51.082;17.016;2023-02-12T03:13:32;101961.52;;;5.94;57.98
56176;BME280;63065;51.082;17.016;2023-02-12T03:15:56;101966.35;;;6.04;57.57
56176;BME280;63065;51.082;17.016;2023-02-12T03:18:22;101973.60;;;6.12;57.55
56176;BME280;63065;51.082;17.016;2023-02-12T03:20:47;101975.09;;;5.84;58.77
56176;BME280;63065;51.082;17.016;2023-02-12T03:23:12;101980.90;;;5.85;58.33
56176;BME280;63065;51.082;17.016;2023-02-12T03:25:38;101982.29;;;6.10;57.20
56176;BME280;63065;51.082;17.016;2023-02-12T03:28:05;101981.11;;;6.12;57.30
56176;BME280;63065;51.082;17.016;2023-02-12T03:30:37;101986.06;;;5.89;57.77
56176;BME280;63065;51.082;17.016;2023-02-12T03:32:58;101989.63;;;6.06;57.67
56176;BME280;63065;51.082;17.016;2023-02-12T03:35:21;101994.00;;;6.05;57.66
56176;BME280;63065;51.082;17.016;2023-02-12T03:37:50;102002.60;;;6.22;57.29
56176;BME280;63065;51.082;17.016;2023-02-12T03:40:15;102002.76;;;6.14;58.65
56176;BME280;63065;51.082;17.016;2023-02-12T03:42:38;102004.24;;;5.92;57.79
56176;BME280;63065;51.082;17.016;2023-02-12T03:45:05;102003.34;;;6.20;57.44
56176;BME280;63065;51.082;17.016;2023-02-12T03:47:33;102012.28;;;6.08;57.94
56176;BME280;63065;51.082;17.016;2023-02-12T03:49:57;102022.16;;;5.79;58.25
56176;BME280;63065;51.082;17.016;2023-02-12T03:52:16;102021.71;;;5.64;58.29
56176;BME280;63065;51.082;17.016;2023-02-12T03:54:41;102018.62;;;5.87;58.48
56176;BME280;63065;51.082;17.016;2023-02-12T03:57:09;102023.88;;;5.83;57.97
56176;BME280;63065;51.082;17.016;2023-02-12T03:59:34;102029.91;;;5.99;57.71
56176;BME280;63065;51.082;17.016;2023-02-12T04:01:58;102025.74;;;6.10;57.70
56176;BME280;63065;51.082;17.016;2023-02-12T04:04:24;102032.76;;;5.99;57.78
56176;BME280;63065;51.082;17.016;2023-02-12T04:06:49;102038.56;;;5.63;58.85
56176;BME280;63065;51.082;17.016;2023-02-12T04:09:15;102040.94;;;6.39;57.78
56176;BME280;63065;51.082;17.016;2023-02-12T04:11:49;102043.80;;;5.90;58.50
56176;BME280;63065;51.082;17.016;2023-02-12T04:14:15;102044.76;;;5.77;58.19
56176;BME280;63065;51.082;17.016;2023-02-12T04:16:34;102048.70;;;5.82;57.76
56176;BME280;63065;51.082;17.016;2023-02-12T04:18:56;102048.33;;;5.78;57.55
56176;BME280;63065;51.082;17.016;2023-02-12T04:21:36;102052.14;;;5.85;57.87
56176;BME280;63065;51.082;17.016;2023-02-12T04:23:52;102051.53;;;6.16;58.06
56176;BME280;63065;51.082;17.016;2023-02-12T04:26:21;102053.90;;;5.66;59.34
56176;BME280;63065;51.082;17.016;2023-02-12T04:28:44;102055.32;;;5.89;58.74
56176;BME280;63065;51.082;17.016;2023-02-12T04:31:07;102056.60;;;5.84;57.85
56176;BME280;63065;51.082;17.016;2023-02-12T04:33:34;102060.65;;;5.98;57.37
56176;BME280;63065;51.082;17.016;2023-02-12T04:35:59;102065.71;;;5.99;57.00
56176;BME280;63065;51.082;17.016;2023-02-12T04:38:22;102069.85;;;6.00;58.45
56176;BME280;63065;51.082;17.016;2023-02-12T04:40:46;102070.68;;;5.35;59.72
56176;BME280;63065;51.082;17.016;2023-02-12T04:43:11;102076.07;;;5.57;59.13
56176;BME280;63065;51.082;17.016;2023-02-12T04:45:37;102076.17;;;4.98;60.66
56176;BME280;63065;51.082;17.016;2023-02-12T04:48:03;102078.53;;;5.52;59.72
56176;BME280;63065;51.082;17.016;2023-02-12T04:50:37;102078.07;;;5.68;58.72
56176;BME280;63065;51.082;17.016;2023-02-12T04:52:52;102081.27;;;5.68;59.22
56176;BME280;63065;51.082;17.016;2023-02-12T04:55:18;102083.05;;;5.46;59.50
56176;BME280;63065;51.082;17.016;2023-02-12T04:57:43;102085.39;;;5.67;59.04
56176;BME280;63065;51.082;17.016;2023-02-12T05:00:12;102084.49;;;5.75;59.05
56176;BME280;63065;51.082;17.016;2023-02-12T05:02:34;102085.65;;;5.84;58.73
56176;BME280;63065;51.082;17.016;2023-02-12T05:04:59;102090.24;;;5.98;58.38
56176;BME280;63065;51.082;17.016;2023-02-12T05:07:25;102093.79;;;5.79;58.51
56176;BME280;63065;51.082;17.016;2023-02-12T05:09:50;102095.20;;;5.37;60.20
56176;BME280;63065;51.082;17.016;2023-02-12T05:12:16;102098.12;;;5.15;60.95
56176;BME280;63065;51.082;17.016;2023-02-12T05:14:41;102101.57;;;5.45;59.69
56176;BME280;63065;51.082;17.016;2023-02-12T05:17:06;102102.75;;;5.78;59.14
56176;BME280;63065;51.082;17.016;2023-02-12T05:19:31;102107.30;;;5.90;58.57
56176;BME280;63065;51.082;17.016;2023-02-12T05:21:56;102105.80;;;5.69;58.41
56176;BME280;63065;51.082;17.016;2023-02-12T05:24:22;102106.68;;;5.56;58.62
56176;BME280;63065;51.082;17.016;2023-02-12T05:26:48;102111.03;;;5.55;58.13
56176;BME280;63065;51.082;17.016;2023-02-12T05:29:14;102116.10;;;5.85;57.47
56176;BME280;63065;51.082;17.016;2023-02-12T05:31:39;102117.33;;;6.28;57.03
56176;BME280;63065;51.082;17.016;2023-02-12T05:34:07;102119.00;;;5.89;57.19
56176;BME280;63065;51.082;17.016;2023-02-12T05:36:30;102123.78;;;6.18;56.78
56176;BME280;63065;51.082;17.016;2023-02-12T05:38:57;102127.53;;;6.01;56.81
56176;BME280;63065;51.082;17.016;2023-02-12T05:41:23;102129.70;;;5.57;57.57
56176;BME280;63065;51.082;17.016;2023-02-12T05:43:47;102130.72;;;5.19;59.21
56176;BME280;63065;51.082;17.016;2023-02-12T05:46:12;102128.76;;;5.71;58.49
56176;BME280;63065;51.082;17.016;2023-02-12T05:48:39;102130.50;;;6.11;57.66
56176;BME280;63065;51.082;17.016;2023-02-12T05:51:06;102134.79;;;5.88;57.68
56176;BME280;63065;51.082;17.016;2023-02-12T05:53:29;102139.94;;;6.19;56.63
56176;BME280;63065;51.082;17.016;2023-02-12T05:55:54;102148.13;;;6.17;56.35
56176;BME280;63065;51.082;17.016;2023-02-12T05:58:19;102154.35;;;6.02;56.63
56176;BME280;63065;51.082;17.016;2023-02-12T06:00:45;102159.06;;;6.03;56.66
56176;BME280;63065;51.082;17.016;2023-02-12T06:03:11;102159.57;;;6.07;56.45
56176;BME280;63065;51.082;17.016;2023-02-12T06:05:36;102168.07;;;6.13;56.35
56176;BME280;63065;51.082;17.016;2023-02-12T06:08:02;102172.85;;;6.23;56.16
56176;BME280;63065;51.082;17.016;2023-02-12T06:10:27;102173.54;;;5.83;56.24
56176;BME280;63065;51.082;17.016;2023-02-12T06:12:53;102177.57;;;5.98;56.35
56176;BME280;63065;51.082;17.016;2023-02-12T06:15:18;102184.98;;;6.28;56.04
56176;BME280;63065;51.082;17.016;2023-02-12T06:17:44;102188.81;;;6.10;55.88
56176;BME280;63065;51.082;17.016;2023-02-12T06:20:10;102193.79;;;6.36;55.84
56176;BME280;63065;51.082;17.016;2023-02-12T06:22:35;102194.63;;;6.05;55.70
56176;BME280;63065;51.082;17.016;2023-02-12T06:25:00;102204.07;;;6.13;55.67
56176;BME280;63065;51.082;17.016;2023-02-12T06:27:26;102210.49;;;5.94;55.81
56176;BME280;63065;51.082;17.016;2023-02-12T06:29:51;102213.69;;;6.32;55.51
56176;BME280;63065;51.082;17.016;2023-02-12T06:32:16;102216.76;;;6.41;55.72
56176;BME280;63065;51.082;17.016;2023-02-12T06:34:42;102220.49;;;6.38;55.65
56176;BME280;63065;51.082;17.016;2023-02-12T06:37:07;102223.21;;;6.39;55.61
56176;BME280;63065;51.082;17.016;2023-02-12T06:39:32;102229.53;;;6.33;55.57
56176;BME280;63065;51.082;17.016;2023-02-12T06:41:57;102233.74;;;6.06;55.77
56176;BME280;63065;51.082;17.016;2023-02-12T06:44:23;102239.78;;;6.15;55.42
56176;BME280;63065;51.082;17.016;2023-02-12T06:46:48;102245.08;;;5.89;55.53
56176;BME280;63065;51.082;17.016;2023-02-12T06:49:14;102245.35;;;6.15;55.38
56176;BME280;63065;51.082;17.016;2023-02-12T06:51:40;102246.16;;;6.39;55.33
56176;BME280;63065;51.082;17.016;2023-02-12T06:54:04;102249.17;;;6.08;55.24
56176;BME280;63065;51.082;17.016;2023-02-12T06:56:30;102253.76;;;6.52;55.52
56176;BME280;63065;51.082;17.016;2023-02-12T06:58:57;102255.47;;;6.14;55.71
56176;BME280;63065;51.082;17.016;2023-02-12T07:01:24;102258.64;;;6.29;56.52
56176;BME280;63065;51.082;17.016;2023-02-12T07:03:48;102255.30;;;6.13;55.96
56176;BME280;63065;51.082;17.016;2023-02-12T07:06:12;102259.74;;;6.37;55.42
56176;BME280;63065;51.082;17.016;2023-02-12T07:08:38;102261.66;;;6.01;55.62
56176;BME280;63065;51.082;17.016;2023-02-12T07:11:04;102264.66;;;6.53;55.16
56176;BME280;63065;51.082;17.016;2023-02-12T07:13:29;102268.87;;;6.19;55.01
56176;BME280;63065;51.082;17.016;2023-02-12T07:15:54;102271.64;;;6.24;55.30
56176;BME280;63065;51.082;17.016;2023-02-12T07:18:20;102277.65;;;6.15;55.04
56176;BME280;63065;51.082;17.016;2023-02-12T07:20:46;102281.91;;;6.27;54.84
56176;BME280;63065;51.082;17.016;2023-02-12T07:23:12;102280.27;;;6.01;54.86
56176;BME280;63065;51.082;17.016;2023-02-12T07:25:37;102285.96;;;5.95;54.88
56176;BME280;63065;51.082;17.016;2023-02-12T07:28:03;102292.37;;;6.30;54.53
56176;BME280;63065;51.082;17.016;2023-02-12T07:30:28;102296.32;;;6.45;54.62
56176;BME280;63065;51.082;17.016;2023-02-12T07:32:54;102296.14;;;6.29;54.55
56176;BME280;63065;51.082;17.016;2023-02-12T07:35:20;102303.18;;;5.94;55.07
56176;BME280;63065;51.082;17.016;2023-02-12T07:37:45;102305.06;;;5.94;55.10
56176;BME280;63065;51.082;17.016;2023-02-12T07:40:12;102301.82;;;6.44;54.62
56176;BME280;63065;51.082;17.016;2023-02-12T07:42:36;102300.83;;;6.42;54.61
56176;BME280;63065;51.082;17.016;2023-02-12T07:45:02;102300.01;;;6.33;54.60
56176;BME280;63065;51.082;17.016;2023-02-12T07:47:27;102300.82;;;6.29;54.40
56176;BME280;63065;51.082;17.016;2023-02-12T07:49:53;102299.32;;;6.55;54.01
56176;BME280;63065;51.082;17.016;2023-02-12T07:52:18;102305.95;;;6.44;53.80
56176;BME280;63065;51.082;17.016;2023-02-12T07:54:43;102309.13;;;6.31;53.94
56176;BME280;63065;51.082;17.016;2023-02-12T07:57:09;102314.23;;;7.08;53.08
56176;BME280;63065;51.082;17.016;2023-02-12T07:59:35;102315.08;;;6.62;53.42
56176;BME280;63065;51.082;17.016;2023-02-12T08:02:00;102316.87;;;6.94;53.48
56176;BME280;63065;51.082;17.016;2023-02-12T08:04:25;102321.35;;;6.63;53.61
56176;BME280;63065;51.082;17.016;2023-02-12T08:06:52;102327.84;;;6.75;53.69
56176;BME280;63065;51.082;17.016;2023-02-12T08:09:19;102327.23;;;6.27;53.54
56176;BME280;63065;51.082;17.016;2023-02-12T08:11:43;102336.54;;;6.29;54.21
56176;BME280;63065;51.082;17.016;2023-02-12T08:14:11;102337.85;;;6.31;54.43
56176;BME280;63065;51.082;17.016;2023-02-12T08:16:36;102337.06;;;6.38;54.24
56176;BME280;63065;51.082;17.016;2023-02-12T08:18:59;102332.91;;;6.26;53.71
56176;BME280;63065;51.082;17.016;2023-02-12T08:21:26;102329.45;;;6.74;53.66
56176;BME280;63065;51.082;17.016;2023-02-12T08:23:50;102329.40;;;6.53;53.32
56176;BME280;63065;51.082;17.016;2023-02-12T08:26:18;102329.86;;;6.39;53.55
56176;BME280;63065;51.082;17.016;2023-02-12T08:28:43;102331.88;;;6.53;53.64
56176;BME280;63065;51.082;17.016;2023-02-12T08:31:08;102331.37;;;6.66;53.41
56176;BME280;63065;51.082;17.016;2023-02-12T08:33:32;102334.66;;;6.62;52.74
56176;BME280;63065;51.082;17.016;2023-02-12T08:36:02;102337.88;;;7.01;53.27
56176;BME280;63065;51.082;17.016;2023-02-12T08:38:22;102337.18;;;6.84;53.40
56176;BME280;63065;51.082;17.016;2023-02-12T08:40:48;102338.53;;;6.65;53.01
56176;BME280;63065;51.082;17.016;2023-02-12T08:43:14;102341.17;;;6.67;53.15
56176;BME280;63065;51.082;17.016;2023-02-12T08:45:39;102341.47;;;6.97;53.19
56176;BME280;63065;51.082;17.016;2023-02-12T08:48:05;102338.00;;;7.02;52.67
56176;BME280;63065;51.082;17.016;2023-02-12T08:50:31;102345.25;;;6.95;52.96
56176;BME280;63065;51.082;17.016;2023-02-12T08:52:56;102345.06;;;7.23;52.66
56176;BME280;63065;51.082;17.016;2023-02-12T08:55:22;102342.22;;;7.29;52.76
56176;BME280;63065;51.082;17.016;2023-02-12T08:57:48;102342.75;;;7.45;52.13
56176;BME280;63065;51.082;17.016;2023-02-12T09:00:13;102346.10;;;7.28;52.43
56176;BME280;63065;51.082;17.016;2023-02-12T09:02:38;102350.37;;;7.60;51.68
56176;BME280;63065;51.082;17.016;2023-02-12T09:05:04;102353.34;;;7.70;51.39
56176;BME280;63065;51.082;17.016;2023-02-12T09:07:29;102358.04;;;7.71;50.88
56176;BME280;63065;51.082;17.016;2023-02-12T09:09:55;102363.78;;;7.86;51.35
56176;BME280;63065;51.082;17.016;2023-02-12T09:12:20;102367.95;;;7.61;51.16
56176;BME280;63065;51.082;17.016;2023-02-12T09:14:45;102367.85;;;7.61;51.16
56176;BME280;63065;51.082;17.016;2023-02-12T09:17:11;102366.54;;;7.65;51.66
56176;BME280;63065;51.082;17.016;2023-02-12T09:19:36;102367.96;;;7.91;50.95
56176;BME280;63065;51.082;17.016;2023-02-12T09:22:01;102368.51;;;7.90;51.35
56176;BME280;63065;51.082;17.016;2023-02-12T09:24:27;102371.15;;;7.93;50.59
56176;BME280;63065;51.082;17.016;2023-02-12T09:26:52;102375.04;;;7.64;50.04
56176;BME280;63065;51.082;17.016;2023-02-12T09:29:18;102384.41;;;7.77;50.08
56176;BME280;63065;51.082;17.016;2023-02-12T09:31:43;102390.42;;;8.08;50.76
56176;BME280;63065;51.082;17.016;2023-02-12T09:34:08;102393.30;;;7.93;50.75
56176;BME280;63065;51.082;17.016;2023-02-12T09:36:33;102394.06;;;7.89;50.28
56176;BME280;63065;51.082;17.016;2023-02-12T09:38:59;102392.95;;;7.67;50.89
56176;BME280;63065;51.082;17.016;2023-02-12T09:43:54;102394.06;;;8.13;51.05
56176;BME280;63065;51.082;17.016;2023-02-12T09:46:17;102397.30;;;8.10;50.74
56176;BME280;63065;51.082;17.016;2023-02-12T09:48:52;102395.61;;;7.62;50.65
56176;BME280;63065;51.082;17.016;2023-02-12T09:51:07;102397.85;;;8.10;50.94
56176;BME280;63065;51.082;17.016;2023-02-12T09:53:31;102402.23;;;8.29;50.12
56176;BME280;63065;51.082;17.016;2023-02-12T09:55:57;102402.54;;;8.17;50.71
56176;BME280;63065;51.082;17.016;2023-02-12T09:58:29;102400.79;;;7.97;50.27
56176;BME280;63065;51.082;17.016;2023-02-12T10:00:47;102398.41;;;8.19;51.34
56176;BME280;63065;51.082;17.016;2023-02-12T10:03:15;102396.62;;;8.36;50.18
56176;BME280;63065;51.082;17.016;2023-02-12T10:05:40;102395.06;;;8.46;50.05
56176;BME280;63065;51.082;17.016;2023-02-12T10:08:17;102387.28;;;8.24;49.68
56176;BME280;63065;51.082;17.016;2023-02-12T10:10:41;102389.90;;;8.35;49.57
56176;BME280;63065;51.082;17.016;2023-02-12T10:12:59;102389.92;;;8.67;49.73
56176;BME280;63065;51.082;17.016;2023-02-12T10:15:30;102388.52;;;7.92;50.98
56176;BME280;63065;51.082;17.016;2023-02-12T10:17:51;102389.69;;;8.29;50.07
56176;BME280;63065;51.082;17.016;2023-02-12T10:22:41;102386.42;;;8.49;49.05
56176;BME280;63065;51.082;17.016;2023-02-12T10:25:10;102390.72;;;7.97;50.15
56176;BME280;63065;51.082;17.016;2023-02-12T10:27:35;102386.28;;;8.03;49.25
56176;BME280;63065;51.082;17.016;2023-02-12T10:29:52;102383.18;;;8.62;49.62
56176;BME280;63065;51.082;17.016;2023-02-12T10:32:23;102382.89;;;8.66;49.92
56176;BME280;63065;51.082;17.016;2023-02-12T10:34:42;102379.25;;;8.79;48.45
56176;BME280;63065;51.082;17.016;2023-02-12T10:37:13;102382.67;;;8.45;48.25
56176;BME280;63065;51.082;17.016;2023-02-12T10:39:36;102381.56;;;7.70;49.72
56176;BME280;63065;51.082;17.016;2023-02-12T10:42:02;102383.11;;;8.43;50.02
56176;BME280;63065;51.082;17.016;2023-02-12T10:44:25;102378.82;;;7.94;49.31
56176;BME280;63065;51.082;17.016;2023-02-12T10:46:50;102373.78;;;8.12;48.71
56176;BME280;63065;51.082;17.016;2023-02-12T10:49:17;102371.70;;;8.76;48.37
56176;BME280;63065;51.082;17.016;2023-02-12T10:56:36;102377.51;;;8.36;48.35
56176;BME280;63065;51.082;17.016;2023-02-12T10:58:58;102374.50;;;8.56;48.84
56176;BME280;63065;51.082;17.016;2023-02-12T11:01:26;102370.49;;;8.39;47.83
56176;BME280;63065;51.082;17.016;2023-02-12T11:03:48;102368.37;;;8.60;47.41
56176;BME280;63065;51.082;17.016;2023-02-12T11:06:17;102366.32;;;8.55;47.91
56176;BME280;63065;51.082;17.016;2023-02-12T11:08:40;102368.15;;;8.36;48.01
56176;BME280;63065;51.082;17.016;2023-02-12T11:11:08;102367.01;;;8.93;47.36
56176;BME280;63065;51.082;17.016;2023-02-12T11:13:29;102363.61;;;9.26;46.43
56176;BME280;63065;51.082;17.016;2023-02-12T11:15:54;102361.96;;;9.43;47.14
56176;BME280;63065;51.082;17.016;2023-02-12T11:18:22;102358.37;;;9.53;45.55
56176;BME280;63065;51.082;17.016;2023-02-12T11:20:49;102359.36;;;8.93;45.38
56176;BME280;63065;51.082;17.016;2023-02-12T11:25:37;102353.68;;;9.05;46.22
56176;BME280;63065;51.082;17.016;2023-02-12T11:28:09;102357.40;;;8.87;45.98
56176;BME280;63065;51.082;17.016;2023-02-12T11:30:28;102358.55;;;8.98;46.18
56176;BME280;63065;51.082;17.016;2023-02-12T11:32:53;102359.92;;;8.65;45.14
56176;BME280;63065;51.082;17.016;2023-02-12T11:35:20;102355.33;;;8.49;46.95
56176;BME280;63065;51.082;17.016;2023-02-12T11:37:45;102359.10;;;8.88;46.98
56176;BME280;63065;51.082;17.016;2023-02-12T11:40:17;102353.35;;;8.94;46.93
56176;BME280;63065;51.082;17.016;2023-02-12T11:42:36;102353.66;;;8.50;47.54
56176;BME280;63065;51.082;17.016;2023-02-12T11:45:01;102354.06;;;8.68;47.63
56176;BME280;63065;51.082;17.016;2023-02-12T11:47:29;102358.64;;;8.69;46.77
56176;BME280;63065;51.082;17.016;2023-02-12T11:49:54;102362.33;;;8.95;45.87
56176;BME280;63065;51.082;17.016;2023-02-12T11:52:19;102361.29;;;8.94;46.74
56176;BME280;63065;51.082;17.016;2023-02-12T11:54:46;102358.02;;;8.91;45.43
56176;BME280;63065;51.082;17.016;2023-02-12T11:59:35;102355.99;;;9.49;43.96
56176;BME280;63065;51.082;17.016;2023-02-12T12:02:02;102352.86;;;9.36;44.28
56176;BME280;63065;51.082;17.016;2023-02-12T12:04:26;102354.46;;;9.97;44.09
56176;BME280;63065;51.082;17.016;2023-02-12T12:06:53;102358.32;;;9.91;42.14
56176;BME280;63065;51.082;17.016;2023-02-12T12:09:21;102354.28;;;9.57;42.10
56176;BME280;63065;51.082;17.016;2023-02-12T12:11:48;102356.11;;;10.27;43.48
56176;BME280;63065;51.082;17.016;2023-02-12T12:14:14;102353.15;;;9.88;42.38
56176;BME280;63065;51.082;17.016;2023-02-12T12:16:35;102354.36;;;9.02;44.09
56176;BME280;63065;51.082;17.016;2023-02-12T12:19:01;102351.86;;;8.94;44.70
56176;BME280;63065;51.082;17.016;2023-02-12T12:21:29;102349.66;;;8.82;45.33
56176;BME280;63065;51.082;17.016;2023-02-12T12:23:51;102354.42;;;8.54;46.08
56176;BME280;63065;51.082;17.016;2023-02-12T12:26:19;102353.35;;;8.08;47.47
56176;BME280;63065;51.082;17.016;2023-02-12T12:28:43;102348.30;;;8.11;47.34
56176;BME280;63065;51.082;17.016;2023-02-12T12:31:08;102349.42;;;8.73;46.80
56176;BME280;63065;51.082;17.016;2023-02-12T12:33:37;102350.72;;;8.36;46.60
56176;BME280;63065;51.082;17.016;2023-02-12T12:38:29;102345.70;;;8.84;46.24
56176;BME280;63065;51.082;17.016;2023-02-12T12:40:56;102343.33;;;8.86;46.40
56176;BME280;63065;51.082;17.016;2023-02-12T12:43:14;102340.57;;;9.31;45.61
56176;BME280;63065;51.082;17.016;2023-02-12T12:45:49;102340.53;;;8.86;44.80
56176;BME280;63065;51.082;17.016;2023-02-12T12:48:14;102336.41;;;8.70;43.73
56176;BME280;63065;51.082;17.016;2023-02-12T12:53:08;102328.87;;;8.89;42.17
56176;BME280;63065;51.082;17.016;2023-02-12T12:57:51;102326.96;;;8.50;44.37
56176;BME280;63065;51.082;17.016;2023-02-12T13:00:23;102326.52;;;8.88;43.99
56176;BME280;63065;51.082;17.016;2023-02-12T13:02:47;102327.97;;;9.08;44.82
56176;BME280;63065;51.082;17.016;2023-02-12T13:07:39;102330.83;;;8.44;45.83
56176;BME280;63065;51.082;17.016;2023-02-12T13:10:02;102326.78;;;8.78;45.98
56176;BME280;63065;51.082;17.016;2023-02-12T13:14:49;102335.87;;;8.80;44.38
56176;BME280;63065;51.082;17.016;2023-02-12T13:17:16;102339.55;;;8.66;44.15